Météo Nord-Pas-de-Calais   La météo au plus près de chez vous

Station météorologique

Observations météo à Villette (54582)

54582001 345 m Dernier relevé à 22:42
14.9°C
Humidité 63 % Vent 5.8 km/h

Journée consultée

Samedi 5 Septembre 2026

Synthèse de la journée

Périodes de référence en UTC

Température maximale

22.1°C

à 17:00

06h 06h

Température minimale

13.4°C

à 07:54

18h 18h

Rafale maximale

36 km/h

à 15:18

00h 00h

Précipitations

0 mm

Cumul quotidien

06h 06h

Graphiques de la journée

Heure locale Réduire

Données détaillées

Relevés météo

Pas de 6 minutes Afficher les relevés infra-horaires
Relevés météo détaillés à Villette pour le Samedi 5 Septembre 2026
Heure Température °C Point de rosée °C Humidité % Vent moyen (raf.), km/h Précipitations mm Hauteur neige cm
22:42 14.9 °C 9 °C 68 % 5 km/h (13 km/h) 0 mm0 mm 0 cm
22:36 14.8 °C 8.9 °C 68 % 5 km/h (13 km/h) 0 mm0 mm 0 cm
22:30 14.7 °C 8.9 °C 68 % 5 km/h (12 km/h) 0 mm0 mm 0 cm
22:24 14.8 °C 8.9 °C 68 % 4 km/h (10 km/h) 0 mm0 mm 0 cm
22:18 15.1 °C 9 °C 67 % 5 km/h (10 km/h) 0 mm0 mm 0 cm
22:12 15.1 °C 9 °C 67 % 5 km/h (10 km/h) 0 mm0 mm 0 cm
22:06 15.2 °C 8.9 °C 66 % 6 km/h (10 km/h) 0 mm0 mm 0 cm
22:00 15.5 °C 9.2 °C 66 % 6 km/h (10 km/h) 0 mm0 mm 0 cm
21:54 15.6 °C 8.8 °C 64 % 7 km/h (11 km/h) 0 mm0 mm 0 cm
21:48 15.6 °C 8.8 °C 64 % 7 km/h (11 km/h) 0 mm0 mm 0 cm
21:42 15.9 °C 8.9 °C 63 % 6 km/h (10 km/h) 0 mm0 mm 0 cm
21:36 15.8 °C 9.2 °C 65 % 6 km/h (11 km/h) 0 mm0 mm 0 cm
21:30 16.3 °C 8.8 °C 61 % 8 km/h (12 km/h) 0 mm0 mm 0 cm
21:24 16.4 °C 8.6 °C 60 % 8 km/h (12 km/h) 0 mm0 mm 0 cm
21:18 16.4 °C 8.6 °C 60 % 9 km/h (12 km/h) 0 mm0 mm 0 cm
21:12 16.4 °C 8.9 °C 61 % 9 km/h (13 km/h) 0 mm0 mm 0 cm
21:06 16.4 °C 8.6 °C 60 % 9 km/h (13 km/h) 0 mm0 mm 0 cm
21:00 16.5 °C 8.7 °C 60 % 9 km/h (12 km/h) 0 mm0 mm 0 cm
20:54 16.7 °C 8.9 °C 60 % 8 km/h (12 km/h) 0 mm0 mm 0 cm
20:48 16.7 °C 8.9 °C 60 % 7 km/h (11 km/h) 0 mm0 mm 0 cm
20:42 16.9 °C 8.6 °C 58 % 8 km/h (12 km/h) 0 mm0 mm 0 cm
20:36 17 °C 8.9 °C 59 % 8 km/h (12 km/h) 0 mm0 mm 0 cm
20:30 17.1 °C 8.8 °C 58 % 8 km/h (11 km/h) 0 mm0 mm 0 cm
20:24 16.9 °C 8.8 °C 59 % 8 km/h (11 km/h) 0 mm0 mm 0 cm
20:18 17.3 °C 8.7 °C 57 % 8 km/h (13 km/h) 0 mm0 mm 0 cm
20:12 17.6 °C 8.7 °C 56 % 8 km/h (12 km/h) 0 mm0 mm 0 cm
20:06 17.9 °C 8.7 °C 55 % 7 km/h (10 km/h) 0 mm0 mm 0 cm
20:00 18.2 °C 8.7 °C 54 % 8 km/h (12 km/h) 0 mm0 mm 0 cm
19:54 18.2 °C 8.7 °C 54 % 9 km/h (12 km/h) 0 mm0 mm 0 cm
19:48 18.4 °C 8.6 °C 53 % 9 km/h (15 km/h) 0 mm0 mm 0 cm
19:42 18.9 °C 8.2 °C 50 % 11 km/h (18 km/h) 0 mm0 mm 0 cm
19:36 19.2 °C 8.5 °C 50 % 11 km/h (18 km/h) 0 mm0 mm 0 cm
19:30 19.4 °C 8.7 °C 50 % 10 km/h (18 km/h) 0 mm0 mm 0 cm
19:24 19.7 °C 9 °C 50 % 11 km/h (18 km/h) 0 mm0 mm 0 cm
19:18 20 °C 9 °C 49 % 13 km/h (20 km/h) 0 mm0 mm 0 cm
19:12 20.1 °C 8.7 °C 48 % 13 km/h (20 km/h) 0 mm0 mm 0 cm
19:06 20.4 °C 9 °C 48 % 11 km/h (19 km/h) 0 mm0 mm 0 cm
19:00 20.4 °C 8.7 °C 47 % 12 km/h (19 km/h) 0 mm0 mm 0 cm
18:54 20.6 °C 8.9 °C 47 % 12 km/h (18 km/h) 0 mm0 mm 0 cm
18:48 20.7 °C 8.7 °C 46 % 12 km/h (19 km/h) 0 mm0 mm 0 cm
18:42 20.7 °C 8.7 °C 46 % 12 km/h (19 km/h) 0 mm0 mm 0 cm
18:36 20.8 °C 8.8 °C 46 % 14 km/h (22 km/h) 0 mm0 mm 0 cm
18:30 20.9 °C 9.2 °C 47 % 13 km/h (23 km/h) 0 mm0 mm 0 cm
18:24 21.1 °C 9.3 °C 47 % 11 km/h (23 km/h) 0 mm0 mm 0 cm
18:18 21.2 °C 10.1 °C 49 % 13 km/h (22 km/h) 0 mm0 mm 0 cm
18:12 21.2 °C 9.4 °C 47 % 15 km/h (26 km/h) 0 mm0 mm 0 cm
18:06 21.4 °C 9.3 °C 46 % 13 km/h (26 km/h) 0 mm0 mm 0 cm
18:00 21.4 °C 9 °C 45 % 15 km/h (27 km/h) 0 mm0 mm 0 cm
17:54 21.8 °C 9.3 °C 45 % 16 km/h (28 km/h) 0 mm0 mm 0 cm
17:48 21.3 °C 9.2 °C 46 % 18 km/h (28 km/h) 0 mm0 mm 0 cm
17:42 21.5 °C 9.1 °C 45 % 21 km/h (32 km/h) 0 mm0 mm 0 cm
17:36 21.8 °C 9.3 °C 45 % 19 km/h (32 km/h) 0 mm0 mm 0 cm
17:30 21.6 °C 8.5 °C 43 % 19 km/h (27 km/h) 0 mm0 mm 0 cm
17:24 21.6 °C 8.8 °C 44 % 18 km/h (27 km/h) 0 mm0 mm 0 cm
17:18 22 °C 9.2 °C 44 % 14 km/h (26 km/h) 0 mm0 mm 0 cm
17:12 21.6 °C 9.2 °C 45 % 18 km/h (32 km/h) 0 mm0 mm 0 cm
17:06 21.9 °C 9.1 °C 44 % 19 km/h (32 km/h) 0 mm0 mm 0 cm
17:00 21.8 °C 9.3 °C 45 % 18 km/h (26 km/h) 0 mm0 mm 0 cm
16:54 21.6 °C 9.5 °C 46 % 19 km/h (33 km/h) 0 mm0 mm 0 cm
16:48 21.9 °C 9.1 °C 44 % 17 km/h (33 km/h) 0 mm0 mm 0 cm
16:42 21.6 °C 9.8 °C 47 % 18 km/h (30 km/h) 0 mm0 mm 0 cm
16:36 21.5 °C 9.1 °C 45 % 21 km/h (30 km/h) 0 mm0 mm 0 cm
16:30 21.5 °C 9.1 °C 45 % 18 km/h (26 km/h) 0 mm0 mm 0 cm
16:24 21.9 °C 9.1 °C 44 % 22 km/h (32 km/h) 0 mm0 mm 0 cm
16:18 21.8 °C 9.7 °C 46 % 21 km/h (32 km/h) 0 mm0 mm 0 cm
16:12 21.8 °C 10 °C 47 % 18 km/h (28 km/h) 0 mm0 mm 0 cm
16:06 21.5 °C 9.4 °C 46 % 21 km/h (30 km/h) 0 mm0 mm 0 cm
16:00 21.4 °C 9.3 °C 46 % 20 km/h (32 km/h) 0 mm0 mm 0 cm
15:54 21.9 °C 9.4 °C 45 % 18 km/h (31 km/h) 0 mm0 mm 0 cm
15:48 21.2 °C 8.8 °C 45 % 20 km/h (31 km/h) 0 mm0 mm 0 cm
15:42 21.5 °C 10 °C 48 % 18 km/h (29 km/h) 0 mm0 mm 0 cm
15:36 21.1 °C 9 °C 46 % 17 km/h (30 km/h) 0 mm0 mm 0 cm
15:30 20.8 °C 9.1 °C 47 % 20 km/h (30 km/h) 0 mm0 mm 0 cm
15:24 21.2 °C 9.4 °C 47 % 19 km/h (29 km/h) 0 mm0 mm 0 cm
15:18 21.1 °C 9 °C 46 % 20 km/h (36 km/h) 0 mm0 mm 0 cm
15:12 21.2 °C 10.1 °C 49 % 20 km/h (28 km/h) 0 mm0 mm 0 cm
15:06 21.1 °C 9.7 °C 48 % 22 km/h (31 km/h) 0 mm0 mm 0 cm
15:00 21.1 °C 9.7 °C 48 % 20 km/h (30 km/h) 0 mm0 mm 0 cm
14:54 21 °C 9.9 °C 49 % 17 km/h (28 km/h) 0 mm0 mm 0 cm
14:48 20.5 °C 9.7 °C 50 % 16 km/h (28 km/h) 0 mm0 mm 0 cm
14:42 20.9 °C 9.5 °C 48 % 18 km/h (27 km/h) 0 mm0 mm 0 cm
14:36 21.1 °C 9.7 °C 48 % 21 km/h (33 km/h) 0 mm0 mm 0 cm
14:30 20.4 °C 9.6 °C 50 % 19 km/h (33 km/h) 0 mm0 mm 0 cm
14:24 19.9 °C 9.5 °C 51 % 17 km/h (28 km/h) 0 mm0 mm 0 cm
14:18 20.3 °C 9.5 °C 50 % 18 km/h (31 km/h) 0 mm0 mm 0 cm
14:12 20.5 °C 10.3 °C 52 % 18 km/h (31 km/h) 0 mm0 mm 0 cm
14:06 20.6 °C 10.1 °C 51 % 18 km/h (26 km/h) 0 mm0 mm 0 cm
14:00 20.2 °C 10.9 °C 55 % 17 km/h (28 km/h) 0 mm0 mm 0 cm
13:54 20.2 °C 10.3 °C 53 % 18 km/h (29 km/h) 0 mm0 mm 0 cm
13:48 19.4 °C 9.3 °C 52 % 19 km/h (31 km/h) 0 mm0 mm 0 cm
13:42 19.6 °C 10 °C 54 % 18 km/h (31 km/h) 0 mm0 mm 0 cm
13:36 19.4 °C 10.1 °C 55 % 18 km/h (29 km/h) 0 mm0 mm 0 cm
13:30 19.5 °C 9.4 °C 52 % 19 km/h (29 km/h) 0 mm0 mm 0 cm
13:24 19.6 °C 10 °C 54 % 19 km/h (29 km/h) 0 mm0 mm 0 cm
13:18 19.7 °C 10.7 °C 56 % 20 km/h (30 km/h) 0 mm0 mm 0 cm
13:12 19.8 °C 11.3 °C 58 % 18 km/h (30 km/h) 0 mm0 mm 0 cm
13:06 19.1 °C 10.6 °C 58 % 15 km/h (26 km/h) 0 mm0 mm 0 cm
13:00 19.1 °C 10.1 °C 56 % 17 km/h (29 km/h) 0 mm0 mm 0 cm
12:54 19 °C 10.5 °C 58 % 19 km/h (29 km/h) 0 mm0 mm 0 cm
12:48 18.7 °C 10.8 °C 60 % 16 km/h (27 km/h) 0 mm0 mm 0 cm
12:42 18.7 °C 10.8 °C 60 % 18 km/h (27 km/h) 0 mm0 mm 0 cm
12:36 18.2 °C 10.3 °C 60 % 17 km/h (26 km/h) 0 mm0 mm 0 cm
12:30 18.7 °C 11 °C 61 % 15 km/h (26 km/h) 0 mm0 mm 0 cm
12:24 18.2 °C 10.8 °C 62 % 14 km/h (23 km/h) 0 mm0 mm 0 cm
12:18 18.4 °C 11 °C 62 % 13 km/h (22 km/h) 0 mm0 mm 0 cm
12:12 18.3 °C 10.9 °C 62 % 13 km/h (22 km/h) 0 mm0 mm 0 cm
12:06 17.7 °C 10.8 °C 64 % 13 km/h (21 km/h) 0 mm0 mm 0 cm
12:00 17.6 °C 10.9 °C 65 % 13 km/h (25 km/h) 0 mm0 mm 0 cm
11:54 17.3 °C 10.9 °C 66 % 14 km/h (25 km/h) 0 mm0 mm 0 cm
11:48 16.3 °C 10.6 °C 69 % 16 km/h (23 km/h) 0 mm0 mm 0 cm
11:42 16.9 °C 11.4 °C 70 % 15 km/h (23 km/h) 0 mm0 mm 0 cm
11:36 17.4 °C 11.4 °C 68 % 14 km/h (22 km/h) 0 mm0 mm 0 cm
11:30 17 °C 11.3 °C 69 % 17 km/h (26 km/h) 0 mm0 mm 0 cm
11:24 16.2 °C 10.9 °C 71 % 17 km/h (27 km/h) 0 mm0 mm 0 cm
11:18 16.6 °C 11.7 °C 73 % 15 km/h (26 km/h) 0 mm0 mm 0 cm
11:12 17.1 °C 12.2 °C 73 % 17 km/h (25 km/h) 0 mm0 mm 0 cm
11:06 16.3 °C 11.4 °C 73 % 15 km/h (23 km/h) 0 mm0 mm 0 cm
11:00 16.8 °C 12.1 °C 74 % 15 km/h (23 km/h) 0 mm0 mm 0 cm
10:54 16.4 °C 12 °C 75 % 16 km/h (23 km/h) 0 mm0 mm 0 cm
10:48 16 °C 11.6 °C 75 % 15 km/h (26 km/h) 0 mm0 mm 0 cm
10:42 15.9 °C 11.7 °C 76 % 16 km/h (26 km/h) 0 mm0 mm 0 cm
10:36 15.6 °C 12.3 °C 81 % 14 km/h (22 km/h) 0 mm0 mm 0 cm
10:30 15.6 °C 12.3 °C 81 % 15 km/h (22 km/h) 0 mm0 mm 0 cm
10:24 15.6 °C 12.2 °C 80 % 13 km/h (22 km/h) 0 mm0 mm 0 cm
10:18 15.5 °C 12.6 °C 83 % 15 km/h (24 km/h) 0 mm0 mm 0 cm
10:12 15.6 °C 12.3 °C 81 % 16 km/h (24 km/h) 0 mm0 mm 0 cm
10:06 15.4 °C 12.5 °C 83 % 14 km/h (21 km/h) 0 mm0 mm 0 cm
10:00 15.4 °C 12.7 °C 84 % 15 km/h (26 km/h) 0 mm0 mm 0 cm
09:54 15.4 °C 13.1 °C 86 % 15 km/h (26 km/h) 0 mm0 mm 0 cm
09:48 15.4 °C 12.7 °C 84 % 14 km/h (24 km/h) 0 mm0 mm 0 cm
09:42 15.4 °C 12.7 °C 84 % 16 km/h (23 km/h) 0 mm0 mm 0 cm
09:36 15.3 °C 13 °C 86 % 15 km/h (21 km/h) 0 mm0 mm 0 cm
09:30 15.2 °C 13 °C 87 % 15 km/h (23 km/h) 0 mm0 mm 0 cm
09:24 15.3 °C 13 °C 86 % 15 km/h (23 km/h) 0 mm0 mm 0 cm
09:18 15 °C 13.4 °C 90 % 17 km/h (25 km/h) 0 mm0 mm 0 cm
09:12 14.7 °C 12.9 °C 89 % 14 km/h (25 km/h) 0 mm0 mm 0 cm
09:06 14.7 °C 13.4 °C 92 % 11 km/h (15 km/h) 0 mm0 mm 0 cm
09:00 14.6 °C 13.5 °C 93 % 11 km/h (17 km/h) 0 mm0 mm 0 cm
08:54 14.4 °C 13.4 °C 94 % 11 km/h (17 km/h) 0 mm0 mm 0 cm
08:48 14.4 °C 13.8 °C 96 % 13 km/h (20 km/h) 0 mm0 mm 0 cm
08:42 14.3 °C 13.5 °C 95 % 14 km/h (21 km/h) 0 mm0 mm 0 cm
08:36 14.4 °C 13.6 °C 95 % 14 km/h (21 km/h) 0 mm0 mm 0 cm
08:30 14.4 °C 13.8 °C 96 % 10 km/h (18 km/h) 0 mm0 mm 0 cm
08:24 14.3 °C 13.7 °C 96 % 9 km/h (14 km/h) 0 mm0 mm 0 cm
08:18 14.1 °C 13.5 °C 96 % 8 km/h (10 km/h) 0 mm0 mm 0 cm
08:12 13.9 °C 13.3 °C 96 % 7 km/h (10 km/h) 0 mm0 mm 0 cm
08:06 13.6 °C 12.8 °C 95 % 8 km/h (11 km/h) 0 mm0 mm 0 cm
08:00 13.4 °C 12.5 °C 94 % 9 km/h (12 km/h) 0 mm0 mm 0 cm
07:54 13.4 °C 12.3 °C 93 % 10 km/h (14 km/h) 0 mm0 mm 0 cm
07:48 13.6 °C 12.3 °C 92 % 10 km/h (15 km/h) 0 mm0 mm 0 cm
07:42 13.6 °C 12.5 °C 93 % 11 km/h (17 km/h) 0 mm0 mm 0 cm
07:36 13.6 °C 12.5 °C 93 % 13 km/h (18 km/h) 0 mm0 mm 0 cm
07:30 13.6 °C 12.8 °C 95 % 12 km/h (18 km/h) 0 mm0 mm 0 cm
07:24 13.6 °C 13.1 °C 97 % 11 km/h (18 km/h) 0 mm0 mm 0 cm
07:18 13.5 °C 13 °C 97 % 11 km/h (18 km/h) 0 mm0 mm 0 cm
07:12 13.5 °C 13 °C 97 % 12 km/h (16 km/h) 0 mm0 mm 0 cm
07:06 13.6 °C 13.1 °C 97 % 12 km/h (16 km/h) 0 mm0 mm 0 cm
07:00 13.8 °C 13.5 °C 98 % 13 km/h (20 km/h) 0 mm0 mm 0 cm
06:54 14 °C 13.7 °C 98 % 14 km/h (22 km/h) 0 mm0 mm 0 cm
06:48 14.2 °C 13.9 °C 98 % 13 km/h (20 km/h) 0 mm0 mm 0 cm
06:42 14 °C 13.7 °C 98 % 13 km/h (17 km/h) 0 mm0 mm 0 cm
06:36 13.8 °C 13.5 °C 98 % 12 km/h (15 km/h) 0 mm0 mm 0 cm
06:30 13.8 °C 13.3 °C 97 % 11 km/h (15 km/h) 0 mm0 mm 0 cm
06:24 13.8 °C 13.3 °C 97 % 11 km/h (15 km/h) 0 mm0 mm 0 cm
06:18 13.9 °C 13.4 °C 97 % 10 km/h (15 km/h) 0 mm0 mm 0 cm
06:12 14 °C 13.5 °C 97 % 10 km/h (15 km/h) 0 mm0 mm 0 cm
06:06 14.1 °C 13.6 °C 97 % 10 km/h (13 km/h) 0 mm0 mm 0 cm
06:00 14.1 °C 13.6 °C 97 % 10 km/h (14 km/h) 0 mm0 mm 0 cm
05:54 14.3 °C 13.8 °C 97 % 9 km/h (13 km/h) 0 mm0 mm 0 cm
05:48 14.3 °C 13.8 °C 97 % 9 km/h (13 km/h) 0 mm0 mm 0 cm
05:42 14.4 °C 13.9 °C 97 % 9 km/h (13 km/h) 0 mm0 mm 0 cm
05:36 14.3 °C 13.8 °C 97 % 10 km/h (15 km/h) 0 mm0 mm 0 cm
05:30 14.3 °C 13.8 °C 97 % 11 km/h (15 km/h) 0 mm0 mm 0 cm
05:24 14.4 °C 13.8 °C 96 % 12 km/h (16 km/h) 0 mm0 mm 0 cm
05:18 14.8 °C 14.3 °C 97 % 12 km/h (22 km/h) 0 mm0 mm 0 cm
05:12 15 °C 14.5 °C 97 % 13 km/h (22 km/h) 0 mm0 mm 0 cm
05:06 14.9 °C 14.4 °C 97 % 13 km/h (18 km/h) 0 mm0 mm 0 cm
05:00 14.9 °C 14.4 °C 97 % 12 km/h (18 km/h) 0 mm0 mm 0 cm
04:54 14.9 °C 14.4 °C 97 % 12 km/h (18 km/h) 0 mm0 mm 0 cm
04:48 14.9 °C 14.3 °C 96 % 14 km/h (21 km/h) 0 mm0 mm 0 cm
04:42 15.2 °C 14.7 °C 97 % 16 km/h (23 km/h) 0 mm0 mm 0 cm
04:36 15.3 °C 14.7 °C 96 % 17 km/h (24 km/h) 0 mm0 mm 0 cm
04:30 15.3 °C 14.8 °C 97 % 17 km/h (24 km/h) 0 mm0 mm 0 cm
04:24 15.3 °C 14.8 °C 97 % 15 km/h (22 km/h) 0 mm0 mm 0 cm
04:18 15.1 °C 14.8 °C 98 % 14 km/h (20 km/h) 0 mm0 mm 0 cm
04:12 14.9 °C 14.4 °C 97 % 13 km/h (17 km/h) 0 mm0 mm 0 cm
04:06 14.7 °C 14.2 °C 97 % 12 km/h (15 km/h) 0 mm0 mm 0 cm
04:00 14.7 °C 14.2 °C 97 % 11 km/h (14 km/h) 0 mm0 mm 0 cm
03:54 14.6 °C 14.1 °C 97 % 11 km/h (14 km/h) 0 mm0 mm 0 cm
03:48 14.7 °C 14.1 °C 96 % 10 km/h (13 km/h) 0 mm0 mm 0 cm
03:42 15.1 °C 14.5 °C 96 % 10 km/h (17 km/h) 0 mm0 mm 0 cm
03:36 15.3 °C 14.7 °C 96 % 13 km/h (17 km/h) 0 mm0 mm 0 cm
03:30 15.5 °C 14.9 °C 96 % 12 km/h (17 km/h) 0 mm0 mm 0 cm
03:24 15.5 °C 14.7 °C 95 % 12 km/h (15 km/h) 0 mm0 mm 0 cm
03:18 15.6 °C 14.8 °C 95 % 12 km/h (15 km/h) 0 mm0 mm 0 cm
03:12 15.6 °C 14.8 °C 95 % 10 km/h (14 km/h) 0 mm0 mm 0 cm
03:06 15.7 °C 14.9 °C 95 % 11 km/h (15 km/h) 0 mm0 mm 0 cm
03:00 15.7 °C 14.9 °C 95 % 11 km/h (17 km/h) 0 mm0.2 mm 0 cm
02:54 15.7 °C 14.9 °C 95 % 9 km/h (14 km/h) 0 mm0 mm 0 cm
02:48 15.8 °C 15 °C 95 % 10 km/h (14 km/h) 0 mm0 mm 0 cm
02:42 15.9 °C 15.1 °C 95 % 10 km/h (14 km/h) 0 mm0 mm 0 cm
02:36 15.9 °C 15.1 °C 95 % 10 km/h (14 km/h) 0.2 mm0 mm 0 cm
02:30 15.9 °C 15.1 °C 95 % 9 km/h (13 km/h) 0 mm0 mm 0 cm
02:24 16 °C 15 °C 94 % 9 km/h (13 km/h) 0 mm0 mm 0 cm
02:18 16.1 °C 15.1 °C 94 % 10 km/h (13 km/h) 0 mm0 mm 0 cm
02:12 16.1 °C 15.1 °C 94 % 11 km/h (17 km/h) 0 mm0 mm 0 cm
02:06 16.1 °C 15 °C 93 % 13 km/h (18 km/h) 0 mm0 mm 0 cm
02:00 16.1 °C 15 °C 93 % 14 km/h (21 km/h) 0 mm0 mm 0 cm
01:54 16.1 °C 15 °C 93 % 14 km/h (21 km/h) 0 mm0 mm 0 cm
01:48 16.1 °C 15 °C 93 % 14 km/h (21 km/h) 0 mm0 mm 0 cm
01:42 16.2 °C 15.1 °C 93 % 15 km/h (21 km/h) 0 mm0 mm 0 cm
01:36 16.2 °C 15.1 °C 93 % 16 km/h (21 km/h) 0 mm0 mm 0 cm
01:30 16.2 °C 15.1 °C 93 % 18 km/h (24 km/h) 0 mm0 mm 0 cm
01:24 16.3 °C 15 °C 92 % 18 km/h (24 km/h) 0 mm0 mm 0 cm
01:18 16.3 °C 15 °C 92 % 16 km/h (22 km/h) 0 mm0 mm 0 cm
01:12 16.4 °C 15.1 °C 92 % 16 km/h (23 km/h) 0 mm0 mm 0 cm
01:06 16.5 °C 15.2 °C 92 % 15 km/h (23 km/h) 0 mm0 mm 0 cm
01:00 16.6 °C 15.1 °C 91 % 15 km/h (22 km/h) 0 mm0 mm 0 cm
00:54 16.7 °C 15.1 °C 90 % 16 km/h (23 km/h) 0 mm0 mm 0 cm
00:48 16.7 °C 15.1 °C 90 % 17 km/h (28 km/h) 0 mm0 mm 0 cm
00:42 16.9 °C 15.1 °C 89 % 18 km/h (28 km/h) 0 mm0 mm 0 cm
00:36 17 °C 15.2 °C 89 % 18 km/h (26 km/h) 0 mm0 mm 0 cm
00:30 17.1 °C 15.4 °C 90 % 16 km/h (25 km/h) 0 mm0 mm 0 cm
00:24 17.3 °C 16 °C 92 % 14 km/h (25 km/h) 0 mm0 mm 0 cm
00:18 17.4 °C 16.4 °C 94 % 14 km/h (20 km/h) 0 mm0 mm 0 cm
00:12 17.6 °C 16.6 °C 94 % 17 km/h (24 km/h) 0 mm0 mm 0 cm
00:06 17.7 °C 16.7 °C 94 % 18 km/h (24 km/h) 0 mm0 mm 0 cm
00:00 17.7 °C 16.7 °C 94 % 17 km/h (25 km/h) 0 mm0 mm 0 cm

Données via Météo-France

Relevés météo à Villette

Cette page rassemble les observations de la station de Villette : température, humidité, vent, précipitations et pression atmosphérique. Les graphiques facilitent le suivi de la journée, tandis que le tableau donne accès aux mesures horaires et infra-horaires disponibles.

Pour replacer ces mesures dans leur contexte, consultez la climatologie de Villette ainsi que ses normales et records. Retrouvez aussi la carte des observations météo en temps réel.